sensor_id;sensor_type;location;lat;lon;timestamp;temperature;humidity
790;DHT22;378;48.844;9.156;2023-04-24T00:01:30;10.90;99.90
790;DHT22;378;48.844;9.156;2023-04-24T00:03:57;11.00;99.90
790;DHT22;378;48.844;9.156;2023-04-24T00:06:25;11.00;99.90
790;DHT22;378;48.844;9.156;2023-04-24T00:09:00;11.10;99.90
790;DHT22;378;48.844;9.156;2023-04-24T00:11:28;11.20;99.90
790;DHT22;378;48.844;9.156;2023-04-24T00:13:55;11.10;99.90
790;DHT22;378;48.844;9.156;2023-04-24T00:16:22;11.20;99.90
790;DHT22;378;48.844;9.156;2023-04-24T00:18:49;11.20;99.90
790;DHT22;378;48.844;9.156;2023-04-24T00:21:18;11.20;99.90
790;DHT22;378;48.844;9.156;2023-04-24T00:23:44;11.20;99.90
790;DHT22;378;48.844;9.156;2023-04-24T00:26:13;11.30;99.90
790;DHT22;378;48.844;9.156;2023-04-24T00:28:40;11.30;99.90
790;DHT22;378;48.844;9.156;2023-04-24T00:31:06;11.30;99.90
790;DHT22;378;48.844;9.156;2023-04-24T00:33:34;11.40;99.90
790;DHT22;378;48.844;9.156;2023-04-24T00:36:00;11.40;99.90
790;DHT22;378;48.844;9.156;2023-04-24T00:38:27;11.40;99.90
790;DHT22;378;48.844;9.156;2023-04-24T00:40:54;11.40;99.90
790;DHT22;378;48.844;9.156;2023-04-24T00:43:22;11.40;99.90
790;DHT22;378;48.844;9.156;2023-04-24T00:45:49;11.40;99.90
790;DHT22;378;48.844;9.156;2023-04-24T00:48:16;11.40;99.90
790;DHT22;378;48.844;9.156;2023-04-24T00:50:43;11.40;99.90
790;DHT22;378;48.844;9.156;2023-04-24T00:53:10;11.40;99.90
790;DHT22;378;48.844;9.156;2023-04-24T00:55:37;11.40;99.90
790;DHT22;378;48.844;9.156;2023-04-24T00:58:04;11.40;99.90
790;DHT22;378;48.844;9.156;2023-04-24T01:00:33;11.40;99.90
790;DHT22;378;48.844;9.156;2023-04-24T01:03:01;11.40;99.90
790;DHT22;378;48.844;9.156;2023-04-24T01:05:32;11.50;99.90
790;DHT22;378;48.844;9.156;2023-04-24T01:07:59;11.50;99.90
790;DHT22;378;48.844;9.156;2023-04-24T01:10:27;11.50;99.90
790;DHT22;378;48.844;9.156;2023-04-24T01:12:56;11.50;99.90
790;DHT22;378;48.844;9.156;2023-04-24T01:15:23;11.60;99.90
790;DHT22;378;48.844;9.156;2023-04-24T01:17:51;11.50;99.90
790;DHT22;378;48.844;9.156;2023-04-24T01:20:18;11.50;99.90
790;DHT22;378;48.844;9.156;2023-04-24T01:22:47;11.50;99.90
790;DHT22;378;48.844;9.156;2023-04-24T01:25:14;11.50;99.90
790;DHT22;378;48.844;9.156;2023-04-24T01:27:41;11.50;99.90
790;DHT22;378;48.844;9.156;2023-04-24T01:30:10;11.50;99.90
790;DHT22;378;48.844;9.156;2023-04-24T01:32:37;11.40;99.90
790;DHT22;378;48.844;9.156;2023-04-24T01:35:05;11.40;99.90
790;DHT22;378;48.844;9.156;2023-04-24T01:37:32;11.30;99.90
790;DHT22;378;48.844;9.156;2023-04-24T01:40:00;11.30;99.90
790;DHT22;378;48.844;9.156;2023-04-24T01:42:27;11.30;99.90
790;DHT22;378;48.844;9.156;2023-04-24T01:44:55;11.20;99.90
790;DHT22;378;48.844;9.156;2023-04-24T01:47:22;11.20;99.90
790;DHT22;378;48.844;9.156;2023-04-24T01:49:50;11.20;99.90
790;DHT22;378;48.844;9.156;2023-04-24T01:52:17;11.20;99.90
790;DHT22;378;48.844;9.156;2023-04-24T01:54:44;11.20;99.90
790;DHT22;378;48.844;9.156;2023-04-24T01:57:13;11.20;99.90
790;DHT22;378;48.844;9.156;2023-04-24T01:59:41;11.10;99.90
790;DHT22;378;48.844;9.156;2023-04-24T02:02:08;11.10;99.90
790;DHT22;378;48.844;9.156;2023-04-24T02:04:35;11.00;99.90
790;DHT22;378;48.844;9.156;2023-04-24T02:07:01;11.00;99.90
790;DHT22;378;48.844;9.156;2023-04-24T02:09:28;11.00;99.90
790;DHT22;378;48.844;9.156;2023-04-24T02:11:55;11.00;99.90
790;DHT22;378;48.844;9.156;2023-04-24T02:14:23;10.90;99.90
790;DHT22;378;48.844;9.156;2023-04-24T02:16:50;10.90;99.90
790;DHT22;378;48.844;9.156;2023-04-24T02:19:17;10.90;99.90
790;DHT22;378;48.844;9.156;2023-04-24T02:21:44;10.90;99.90
790;DHT22;378;48.844;9.156;2023-04-24T02:24:11;10.90;99.90
790;DHT22;378;48.844;9.156;2023-04-24T02:26:37;10.90;99.90
790;DHT22;378;48.844;9.156;2023-04-24T02:29:04;10.90;99.90
790;DHT22;378;48.844;9.156;2023-04-24T02:31:32;11.00;99.90
790;DHT22;378;48.844;9.156;2023-04-24T02:33:59;11.00;99.90
790;DHT22;378;48.844;9.156;2023-04-24T02:36:26;11.10;99.90
790;DHT22;378;48.844;9.156;2023-04-24T02:38:53;11.10;99.90
790;DHT22;378;48.844;9.156;2023-04-24T02:41:20;11.10;99.90
790;DHT22;378;48.844;9.156;2023-04-24T02:43:47;11.20;99.90
790;DHT22;378;48.844;9.156;2023-04-24T02:46:13;11.10;99.90
790;DHT22;378;48.844;9.156;2023-04-24T02:48:42;10.90;99.90
790;DHT22;378;48.844;9.156;2023-04-24T02:51:08;10.70;99.90
790;DHT22;378;48.844;9.156;2023-04-24T02:53:35;10.60;99.90
790;DHT22;378;48.844;9.156;2023-04-24T02:56:02;10.50;99.90
790;DHT22;378;48.844;9.156;2023-04-24T02:58:29;10.40;99.90
790;DHT22;378;48.844;9.156;2023-04-24T03:00:56;10.30;99.90
790;DHT22;378;48.844;9.156;2023-04-24T03:03:23;10.30;99.90
790;DHT22;378;48.844;9.156;2023-04-24T03:05:52;10.30;99.90
790;DHT22;378;48.844;9.156;2023-04-24T03:08:18;10.30;99.90
790;DHT22;378;48.844;9.156;2023-04-24T03:10:46;10.30;99.90
790;DHT22;378;48.844;9.156;2023-04-24T03:13:12;10.20;99.90
790;DHT22;378;48.844;9.156;2023-04-24T03:15:39;10.30;99.90
790;DHT22;378;48.844;9.156;2023-04-24T03:18:06;10.20;99.90
790;DHT22;378;48.844;9.156;2023-04-24T03:20:33;10.20;99.90
790;DHT22;378;48.844;9.156;2023-04-24T03:23:01;10.20;99.90
790;DHT22;378;48.844;9.156;2023-04-24T03:25:28;10.10;99.90
790;DHT22;378;48.844;9.156;2023-04-24T03:27:55;10.10;99.90
790;DHT22;378;48.844;9.156;2023-04-24T03:30:22;10.10;99.90
790;DHT22;378;48.844;9.156;2023-04-24T03:32:48;10.00;99.90
790;DHT22;378;48.844;9.156;2023-04-24T03:35:15;10.00;99.90
790;DHT22;378;48.844;9.156;2023-04-24T03:37:42;9.90;99.90
790;DHT22;378;48.844;9.156;2023-04-24T03:40:11;9.90;99.90
790;DHT22;378;48.844;9.156;2023-04-24T03:42:38;9.90;99.90
790;DHT22;378;48.844;9.156;2023-04-24T03:45:05;9.90;99.90
790;DHT22;378;48.844;9.156;2023-04-24T03:47:32;9.90;99.90
790;DHT22;378;48.844;9.156;2023-04-24T03:49:59;9.90;99.90
790;DHT22;378;48.844;9.156;2023-04-24T03:52:26;9.90;99.90
790;DHT22;378;48.844;9.156;2023-04-24T03:54:53;9.80;99.90
790;DHT22;378;48.844;9.156;2023-04-24T03:57:22;9.90;99.90
790;DHT22;378;48.844;9.156;2023-04-24T03:59:49;9.80;99.90
790;DHT22;378;48.844;9.156;2023-04-24T04:02:15;9.80;99.90
790;DHT22;378;48.844;9.156;2023-04-24T04:04:42;9.80;99.90
790;DHT22;378;48.844;9.156;2023-04-24T04:07:09;9.80;99.90
790;DHT22;378;48.844;9.156;2023-04-24T04:09:36;9.80;99.90
790;DHT22;378;48.844;9.156;2023-04-24T04:12:03;9.90;99.90
790;DHT22;378;48.844;9.156;2023-04-24T04:14:31;10.00;99.90
790;DHT22;378;48.844;9.156;2023-04-24T04:16:58;10.00;99.90
790;DHT22;378;48.844;9.156;2023-04-24T04:19:26;10.10;99.90
790;DHT22;378;48.844;9.156;2023-04-24T04:21:52;10.10;99.90
790;DHT22;378;48.844;9.156;2023-04-24T04:24:21;10.10;99.90
790;DHT22;378;48.844;9.156;2023-04-24T04:26:49;9.90;99.90
790;DHT22;378;48.844;9.156;2023-04-24T04:29:16;9.70;99.90
790;DHT22;378;48.844;9.156;2023-04-24T04:31:45;9.50;99.90
790;DHT22;378;48.844;9.156;2023-04-24T04:34:12;9.40;99.90
790;DHT22;378;48.844;9.156;2023-04-24T04:36:39;9.40;99.90
790;DHT22;378;48.844;9.156;2023-04-24T04:39:06;9.30;99.90
790;DHT22;378;48.844;9.156;2023-04-24T04:41:33;9.30;99.90
790;DHT22;378;48.844;9.156;2023-04-24T04:44:01;9.20;99.90
790;DHT22;378;48.844;9.156;2023-04-24T04:46:30;9.20;99.90
790;DHT22;378;48.844;9.156;2023-04-24T04:48:59;9.10;99.90
790;DHT22;378;48.844;9.156;2023-04-24T04:51:26;9.00;99.90
790;DHT22;378;48.844;9.156;2023-04-24T04:53:53;9.00;99.90
790;DHT22;378;48.844;9.156;2023-04-24T04:56:20;9.00;99.90
790;DHT22;378;48.844;9.156;2023-04-24T04:58:47;8.90;99.90
790;DHT22;378;48.844;9.156;2023-04-24T05:01:14;8.90;99.90
790;DHT22;378;48.844;9.156;2023-04-24T05:03:41;8.90;99.90
790;DHT22;378;48.844;9.156;2023-04-24T05:06:09;8.80;99.90
790;DHT22;378;48.844;9.156;2023-04-24T05:08:36;8.80;99.90
790;DHT22;378;48.844;9.156;2023-04-24T05:11:03;8.80;99.90
790;DHT22;378;48.844;9.156;2023-04-24T05:13:30;8.80;99.90
790;DHT22;378;48.844;9.156;2023-04-24T05:15:57;8.80;99.90
790;DHT22;378;48.844;9.156;2023-04-24T05:18:24;8.80;99.90
790;DHT22;378;48.844;9.156;2023-04-24T05:20:51;8.70;99.90
790;DHT22;378;48.844;9.156;2023-04-24T05:23:19;8.80;99.90
790;DHT22;378;48.844;9.156;2023-04-24T05:25:46;8.80;99.90
790;DHT22;378;48.844;9.156;2023-04-24T05:28:13;8.80;99.90
790;DHT22;378;48.844;9.156;2023-04-24T05:30:40;8.90;99.90
790;DHT22;378;48.844;9.156;2023-04-24T05:33:07;8.90;99.90
790;DHT22;378;48.844;9.156;2023-04-24T05:35:35;8.90;99.90
790;DHT22;378;48.844;9.156;2023-04-24T05:38:02;9.00;99.90
790;DHT22;378;48.844;9.156;2023-04-24T05:40:31;9.00;99.90
790;DHT22;378;48.844;9.156;2023-04-24T05:42:57;9.00;99.90
790;DHT22;378;48.844;9.156;2023-04-24T05:45:24;8.90;99.90
790;DHT22;378;48.844;9.156;2023-04-24T05:47:52;9.00;99.90
790;DHT22;378;48.844;9.156;2023-04-24T05:50:19;9.00;99.90
790;DHT22;378;48.844;9.156;2023-04-24T05:52:46;9.10;99.90
790;DHT22;378;48.844;9.156;2023-04-24T05:55:13;9.20;99.90
790;DHT22;378;48.844;9.156;2023-04-24T05:57:44;9.40;99.90
790;DHT22;378;48.844;9.156;2023-04-24T06:00:12;9.50;99.90
790;DHT22;378;48.844;9.156;2023-04-24T06:02:39;9.60;99.90
790;DHT22;378;48.844;9.156;2023-04-24T06:05:06;9.70;99.90
790;DHT22;378;48.844;9.156;2023-04-24T06:07:34;9.70;99.90
790;DHT22;378;48.844;9.156;2023-04-24T06:10:01;9.70;99.90
790;DHT22;378;48.844;9.156;2023-04-24T06:12:27;9.70;99.90
790;DHT22;378;48.844;9.156;2023-04-24T06:14:56;9.60;99.90
790;DHT22;378;48.844;9.156;2023-04-24T06:17:22;9.70;99.90
790;DHT22;378;48.844;9.156;2023-04-24T06:19:49;9.80;99.90
790;DHT22;378;48.844;9.156;2023-04-24T06:22:16;9.90;99.90
790;DHT22;378;48.844;9.156;2023-04-24T06:24:43;10.20;99.90
790;DHT22;378;48.844;9.156;2023-04-24T06:27:10;10.90;99.90
790;DHT22;378;48.844;9.156;2023-04-24T06:29:37;11.70;99.90
790;DHT22;378;48.844;9.156;2023-04-24T06:32:05;11.90;99.90
790;DHT22;378;48.844;9.156;2023-04-24T06:34:33;11.90;99.90
790;DHT22;378;48.844;9.156;2023-04-24T06:37:01;11.90;99.90
790;DHT22;378;48.844;9.156;2023-04-24T06:39:27;11.80;99.90
790;DHT22;378;48.844;9.156;2023-04-24T06:41:54;12.10;99.90
790;DHT22;378;48.844;9.156;2023-04-24T06:44:21;12.20;99.90
790;DHT22;378;48.844;9.156;2023-04-24T06:46:48;12.20;99.90
790;DHT22;378;48.844;9.156;2023-04-24T06:49:16;12.30;99.90
790;DHT22;378;48.844;9.156;2023-04-24T06:51:43;12.30;99.90
790;DHT22;378;48.844;9.156;2023-04-24T06:54:10;12.80;99.90
790;DHT22;378;48.844;9.156;2023-04-24T06:56:37;13.60;99.90
790;DHT22;378;48.844;9.156;2023-04-24T06:59:04;14.00;99.90
790;DHT22;378;48.844;9.156;2023-04-24T07:01:31;14.70;99.90
790;DHT22;378;48.844;9.156;2023-04-24T07:03:58;14.60;99.90
790;DHT22;378;48.844;9.156;2023-04-24T07:06:26;14.10;99.90
790;DHT22;378;48.844;9.156;2023-04-24T07:08:59;13.90;99.90
790;DHT22;378;48.844;9.156;2023-04-24T07:11:27;15.00;99.90
790;DHT22;378;48.844;9.156;2023-04-24T07:13:54;15.80;99.90
790;DHT22;378;48.844;9.156;2023-04-24T07:16:21;15.90;99.90
790;DHT22;378;48.844;9.156;2023-04-24T07:18:48;15.10;99.90
790;DHT22;378;48.844;9.156;2023-04-24T07:21:15;13.70;99.90
790;DHT22;378;48.844;9.156;2023-04-24T07:23:43;13.10;99.90
790;DHT22;378;48.844;9.156;2023-04-24T07:26:10;12.90;99.90
790;DHT22;378;48.844;9.156;2023-04-24T07:28:37;12.80;99.90
790;DHT22;378;48.844;9.156;2023-04-24T07:31:04;12.50;99.90
790;DHT22;378;48.844;9.156;2023-04-24T07:33:31;12.40;99.90
790;DHT22;378;48.844;9.156;2023-04-24T07:35:58;12.70;99.90
790;DHT22;378;48.844;9.156;2023-04-24T07:38:25;13.20;99.90
790;DHT22;378;48.844;9.156;2023-04-24T07:40:54;13.60;99.90
790;DHT22;378;48.844;9.156;2023-04-24T07:43:21;14.00;99.90
790;DHT22;378;48.844;9.156;2023-04-24T07:45:49;13.90;99.90
790;DHT22;378;48.844;9.156;2023-04-24T07:48:16;14.10;99.90
790;DHT22;378;48.844;9.156;2023-04-24T07:50:43;14.00;99.90
790;DHT22;378;48.844;9.156;2023-04-24T07:53:10;13.70;99.90
790;DHT22;378;48.844;9.156;2023-04-24T07:55:37;13.80;99.90
790;DHT22;378;48.844;9.156;2023-04-24T07:58:06;14.40;99.90
790;DHT22;378;48.844;9.156;2023-04-24T08:00:33;15.20;99.90
790;DHT22;378;48.844;9.156;2023-04-24T08:03:00;15.20;99.90
790;DHT22;378;48.844;9.156;2023-04-24T08:05:27;14.90;99.90
790;DHT22;378;48.844;9.156;2023-04-24T08:07:54;15.00;99.90
790;DHT22;378;48.844;9.156;2023-04-24T08:10:22;15.30;99.90
790;DHT22;378;48.844;9.156;2023-04-24T08:12:48;16.00;99.90
790;DHT22;378;48.844;9.156;2023-04-24T08:15:17;16.20;99.90
790;DHT22;378;48.844;9.156;2023-04-24T08:17:44;16.40;99.90
790;DHT22;378;48.844;9.156;2023-04-24T08:20:11;15.60;99.90
790;DHT22;378;48.844;9.156;2023-04-24T08:22:39;15.20;99.90
790;DHT22;378;48.844;9.156;2023-04-24T08:25:07;14.60;99.90
790;DHT22;378;48.844;9.156;2023-04-24T08:27:34;14.00;99.90
790;DHT22;378;48.844;9.156;2023-04-24T08:30:02;13.80;99.90
790;DHT22;378;48.844;9.156;2023-04-24T08:32:30;13.80;99.90
790;DHT22;378;48.844;9.156;2023-04-24T08:34:58;14.30;99.90
790;DHT22;378;48.844;9.156;2023-04-24T08:37:26;14.40;99.90
790;DHT22;378;48.844;9.156;2023-04-24T08:39:53;14.40;99.90
790;DHT22;378;48.844;9.156;2023-04-24T08:42:21;13.90;99.90
790;DHT22;378;48.844;9.156;2023-04-24T08:44:49;13.60;99.90
790;DHT22;378;48.844;9.156;2023-04-24T08:47:16;13.70;99.90
790;DHT22;378;48.844;9.156;2023-04-24T08:49:48;13.50;99.90
790;DHT22;378;48.844;9.156;2023-04-24T08:52:16;13.30;99.90
790;DHT22;378;48.844;9.156;2023-04-24T08:54:46;13.30;99.90
790;DHT22;378;48.844;9.156;2023-04-24T08:57:14;13.10;99.90
790;DHT22;378;48.844;9.156;2023-04-24T08:59:42;13.10;99.90
790;DHT22;378;48.844;9.156;2023-04-24T09:02:10;12.80;99.90
790;DHT22;378;48.844;9.156;2023-04-24T09:04:37;13.10;99.90
790;DHT22;378;48.844;9.156;2023-04-24T09:07:06;14.00;99.90
790;DHT22;378;48.844;9.156;2023-04-24T09:09:35;14.30;99.90
790;DHT22;378;48.844;9.156;2023-04-24T09:12:03;14.60;99.90
790;DHT22;378;48.844;9.156;2023-04-24T09:14:33;14.90;99.90
790;DHT22;378;48.844;9.156;2023-04-24T09:17:01;14.30;99.90
790;DHT22;378;48.844;9.156;2023-04-24T09:19:28;13.40;99.90
790;DHT22;378;48.844;9.156;2023-04-24T09:21:55;12.60;99.90
790;DHT22;378;48.844;9.156;2023-04-24T09:24:24;12.30;99.90
790;DHT22;378;48.844;9.156;2023-04-24T09:26:56;11.80;99.90
790;DHT22;378;48.844;9.156;2023-04-24T09:29:24;11.80;99.90
790;DHT22;378;48.844;9.156;2023-04-24T09:31:51;11.80;99.90
790;DHT22;378;48.844;9.156;2023-04-24T09:34:21;11.90;99.90
790;DHT22;378;48.844;9.156;2023-04-24T09:36:50;12.00;99.90
790;DHT22;378;48.844;9.156;2023-04-24T09:39:17;12.20;99.90
790;DHT22;378;48.844;9.156;2023-04-24T09:41:48;12.30;99.90
790;DHT22;378;48.844;9.156;2023-04-24T09:44:16;13.20;99.90
790;DHT22;378;48.844;9.156;2023-04-24T09:46:45;14.90;99.90
790;DHT22;378;48.844;9.156;2023-04-24T09:49:16;16.70;99.90
790;DHT22;378;48.844;9.156;2023-04-24T09:51:43;17.90;99.90
790;DHT22;378;48.844;9.156;2023-04-24T09:54:14;18.90;99.90
790;DHT22;378;48.844;9.156;2023-04-24T09:56:43;17.40;99.90
790;DHT22;378;48.844;9.156;2023-04-24T09:59:13;15.50;99.90
790;DHT22;378;48.844;9.156;2023-04-24T10:01:40;15.20;99.90
790;DHT22;378;48.844;9.156;2023-04-24T10:04:19;15.20;99.90
790;DHT22;378;48.844;9.156;2023-04-24T10:06:47;15.10;99.90
790;DHT22;378;48.844;9.156;2023-04-24T10:09:16;16.00;99.90
790;DHT22;378;48.844;9.156;2023-04-24T10:11:45;16.80;99.90
790;DHT22;378;48.844;9.156;2023-04-24T10:14:14;17.60;99.90
790;DHT22;378;48.844;9.156;2023-04-24T10:16:42;17.00;99.90
790;DHT22;378;48.844;9.156;2023-04-24T10:19:10;16.10;99.90
790;DHT22;378;48.844;9.156;2023-04-24T10:21:40;16.10;99.90
790;DHT22;378;48.844;9.156;2023-04-24T10:24:12;15.90;99.90
790;DHT22;378;48.844;9.156;2023-04-24T10:26:40;15.70;99.90
790;DHT22;378;48.844;9.156;2023-04-24T10:29:07;15.40;99.90
790;DHT22;378;48.844;9.156;2023-04-24T10:31:37;15.00;99.90
790;DHT22;378;48.844;9.156;2023-04-24T10:34:05;14.40;99.90
790;DHT22;378;48.844;9.156;2023-04-24T10:36:33;14.10;99.90
790;DHT22;378;48.844;9.156;2023-04-24T10:39:02;13.80;99.90
790;DHT22;378;48.844;9.156;2023-04-24T10:41:30;13.60;99.90
790;DHT22;378;48.844;9.156;2023-04-24T10:44:06;13.50;99.90
790;DHT22;378;48.844;9.156;2023-04-24T10:46:35;13.20;99.90
790;DHT22;378;48.844;9.156;2023-04-24T10:49:04;13.00;99.90
790;DHT22;378;48.844;9.156;2023-04-24T10:51:46;13.00;99.90
790;DHT22;378;48.844;9.156;2023-04-24T10:54:24;13.30;99.90
790;DHT22;378;48.844;9.156;2023-04-24T10:56:53;13.50;99.90
790;DHT22;378;48.844;9.156;2023-04-24T10:59:27;13.80;99.90
790;DHT22;378;48.844;9.156;2023-04-24T11:02:07;14.00;99.90
790;DHT22;378;48.844;9.156;2023-04-24T11:04:34;13.90;99.90
790;DHT22;378;48.844;9.156;2023-04-24T11:07:02;13.90;99.90
790;DHT22;378;48.844;9.156;2023-04-24T11:09:31;15.00;99.90
790;DHT22;378;48.844;9.156;2023-04-24T11:12:05;14.80;99.90
790;DHT22;378;48.844;9.156;2023-04-24T11:15:00;14.10;99.90
790;DHT22;378;48.844;9.156;2023-04-24T11:17:31;15.50;99.90
790;DHT22;378;48.844;9.156;2023-04-24T11:20:02;16.30;99.90
790;DHT22;378;48.844;9.156;2023-04-24T11:22:33;16.60;99.90
790;DHT22;378;48.844;9.156;2023-04-24T11:25:00;16.90;99.90
790;DHT22;378;48.844;9.156;2023-04-24T11:27:30;16.70;99.90
790;DHT22;378;48.844;9.156;2023-04-24T11:30:02;17.00;99.90
790;DHT22;378;48.844;9.156;2023-04-24T11:32:34;16.80;99.90
790;DHT22;378;48.844;9.156;2023-04-24T11:35:05;16.30;99.90
790;DHT22;378;48.844;9.156;2023-04-24T11:37:35;15.80;99.90
790;DHT22;378;48.844;9.156;2023-04-24T11:40:03;15.50;99.90
790;DHT22;378;48.844;9.156;2023-04-24T11:42:33;15.40;99.90
790;DHT22;378;48.844;9.156;2023-04-24T11:45:01;15.60;99.90
790;DHT22;378;48.844;9.156;2023-04-24T11:47:29;15.20;99.90
790;DHT22;378;48.844;9.156;2023-04-24T11:49:58;14.40;99.90
790;DHT22;378;48.844;9.156;2023-04-24T11:52:25;14.10;99.90
790;DHT22;378;48.844;9.156;2023-04-24T11:54:52;13.80;99.90
790;DHT22;378;48.844;9.156;2023-04-24T11:57:19;14.00;99.90
790;DHT22;378;48.844;9.156;2023-04-24T11:59:46;14.60;99.90
790;DHT22;378;48.844;9.156;2023-04-24T12:02:21;15.70;99.90
790;DHT22;378;48.844;9.156;2023-04-24T12:04:48;16.40;99.90
790;DHT22;378;48.844;9.156;2023-04-24T12:07:16;17.40;99.90
790;DHT22;378;48.844;9.156;2023-04-24T12:09:44;18.50;99.90
790;DHT22;378;48.844;9.156;2023-04-24T12:12:12;18.60;99.90
790;DHT22;378;48.844;9.156;2023-04-24T12:14:43;17.10;99.90
790;DHT22;378;48.844;9.156;2023-04-24T12:17:10;15.80;99.90
790;DHT22;378;48.844;9.156;2023-04-24T12:19:37;15.10;99.90
790;DHT22;378;48.844;9.156;2023-04-24T12:22:05;14.20;99.90
790;DHT22;378;48.844;9.156;2023-04-24T12:24:34;14.20;99.90
790;DHT22;378;48.844;9.156;2023-04-24T12:27:00;14.30;99.90
790;DHT22;378;48.844;9.156;2023-04-24T12:29:28;14.60;99.90
790;DHT22;378;48.844;9.156;2023-04-24T12:31:54;15.30;99.90
790;DHT22;378;48.844;9.156;2023-04-24T12:34:23;15.40;99.90
790;DHT22;378;48.844;9.156;2023-04-24T12:36:50;15.20;99.90
790;DHT22;378;48.844;9.156;2023-04-24T12:39:18;14.80;99.90
790;DHT22;378;48.844;9.156;2023-04-24T12:41:54;14.40;99.90
790;DHT22;378;48.844;9.156;2023-04-24T12:44:29;14.20;99.90
790;DHT22;378;48.844;9.156;2023-04-24T12:46:56;14.60;99.90
790;DHT22;378;48.844;9.156;2023-04-24T12:49:22;14.90;99.90
790;DHT22;378;48.844;9.156;2023-04-24T12:51:51;14.50;99.90
790;DHT22;378;48.844;9.156;2023-04-24T12:54:21;14.30;99.90
790;DHT22;378;48.844;9.156;2023-04-24T12:56:49;14.10;99.90
790;DHT22;378;48.844;9.156;2023-04-24T12:59:18;13.90;99.90
790;DHT22;378;48.844;9.156;2023-04-24T13:01:44;13.10;99.90
790;DHT22;378;48.844;9.156;2023-04-24T13:04:11;12.80;99.90
790;DHT22;378;48.844;9.156;2023-04-24T13:06:38;12.90;99.90
790;DHT22;378;48.844;9.156;2023-04-24T13:09:05;14.00;99.90
790;DHT22;378;48.844;9.156;2023-04-24T13:11:33;14.90;99.90
790;DHT22;378;48.844;9.156;2023-04-24T13:13:59;15.60;99.90
790;DHT22;378;48.844;9.156;2023-04-24T13:16:28;15.80;99.90
790;DHT22;378;48.844;9.156;2023-04-24T13:18:54;15.10;99.90
790;DHT22;378;48.844;9.156;2023-04-24T13:21:21;14.20;99.90
790;DHT22;378;48.844;9.156;2023-04-24T13:23:48;13.70;99.90
790;DHT22;378;48.844;9.156;2023-04-24T13:26:15;13.80;99.90
790;DHT22;378;48.844;9.156;2023-04-24T13:28:42;14.10;99.90
790;DHT22;378;48.844;9.156;2023-04-24T13:31:09;14.50;99.90
790;DHT22;378;48.844;9.156;2023-04-24T13:33:37;14.60;99.90
790;DHT22;378;48.844;9.156;2023-04-24T13:36:04;14.50;99.90
790;DHT22;378;48.844;9.156;2023-04-24T13:38:31;14.20;99.90
790;DHT22;378;48.844;9.156;2023-04-24T13:40:58;14.00;99.90
790;DHT22;378;48.844;9.156;2023-04-24T13:43:25;13.40;99.90
790;DHT22;378;48.844;9.156;2023-04-24T13:45:52;13.30;99.90
790;DHT22;378;48.844;9.156;2023-04-24T13:48:19;13.20;99.90
790;DHT22;378;48.844;9.156;2023-04-24T13:50:47;14.10;99.90
790;DHT22;378;48.844;9.156;2023-04-24T13:53:15;15.60;99.90
790;DHT22;378;48.844;9.156;2023-04-24T13:55:42;16.40;99.90
790;DHT22;378;48.844;9.156;2023-04-24T13:58:08;17.20;99.90
790;DHT22;378;48.844;9.156;2023-04-24T14:00:36;18.80;99.90
790;DHT22;378;48.844;9.156;2023-04-24T14:03:03;19.00;99.90
790;DHT22;378;48.844;9.156;2023-04-24T14:05:30;17.00;99.90
790;DHT22;378;48.844;9.156;2023-04-24T14:07:58;15.50;99.90
790;DHT22;378;48.844;9.156;2023-04-24T14:10:25;14.90;99.90
790;DHT22;378;48.844;9.156;2023-04-24T14:12:52;15.30;99.90
790;DHT22;378;48.844;9.156;2023-04-24T14:15:19;15.50;99.90
790;DHT22;378;48.844;9.156;2023-04-24T14:17:47;15.40;99.90
790;DHT22;378;48.844;9.156;2023-04-24T14:20:14;14.90;99.90
790;DHT22;378;48.844;9.156;2023-04-24T14:22:40;14.60;99.90
790;DHT22;378;48.844;9.156;2023-04-24T14:25:09;14.60;99.90
790;DHT22;378;48.844;9.156;2023-04-24T14:27:36;14.90;99.90
790;DHT22;378;48.844;9.156;2023-04-24T14:30:03;15.90;99.90
790;DHT22;378;48.844;9.156;2023-04-24T14:32:31;15.90;99.90
790;DHT22;378;48.844;9.156;2023-04-24T14:34:58;16.00;99.90
790;DHT22;378;48.844;9.156;2023-04-24T14:37:25;15.30;99.90
790;DHT22;378;48.844;9.156;2023-04-24T14:39:51;14.30;99.90
790;DHT22;378;48.844;9.156;2023-04-24T14:42:20;14.00;99.90
790;DHT22;378;48.844;9.156;2023-04-24T14:44:46;14.00;99.90
790;DHT22;378;48.844;9.156;2023-04-24T14:47:13;13.70;99.90
790;DHT22;378;48.844;9.156;2023-04-24T14:49:40;13.50;99.90
790;DHT22;378;48.844;9.156;2023-04-24T14:52:09;13.50;99.90
790;DHT22;378;48.844;9.156;2023-04-24T14:54:35;13.50;99.90
790;DHT22;378;48.844;9.156;2023-04-24T14:57:02;13.60;99.90
790;DHT22;378;48.844;9.156;2023-04-24T14:59:32;13.70;99.90
790;DHT22;378;48.844;9.156;2023-04-24T15:01:59;14.70;99.90
790;DHT22;378;48.844;9.156;2023-04-24T15:04:27;15.90;99.90
790;DHT22;378;48.844;9.156;2023-04-24T15:06:54;17.70;99.90
790;DHT22;378;48.844;9.156;2023-04-24T15:09:22;18.80;99.90
790;DHT22;378;48.844;9.156;2023-04-24T15:11:50;18.40;99.90
790;DHT22;378;48.844;9.156;2023-04-24T15:14:17;17.20;99.90
790;DHT22;378;48.844;9.156;2023-04-24T15:16:45;15.40;99.90
790;DHT22;378;48.844;9.156;2023-04-24T15:19:12;14.50;99.90
790;DHT22;378;48.844;9.156;2023-04-24T15:21:39;13.90;99.90
790;DHT22;378;48.844;9.156;2023-04-24T15:24:08;13.40;99.90
790;DHT22;378;48.844;9.156;2023-04-24T15:26:34;13.30;99.90
790;DHT22;378;48.844;9.156;2023-04-24T15:29:01;13.30;99.90
790;DHT22;378;48.844;9.156;2023-04-24T15:31:28;12.70;99.90
790;DHT22;378;48.844;9.156;2023-04-24T15:33:57;12.50;99.90
790;DHT22;378;48.844;9.156;2023-04-24T15:36:23;12.30;99.90
790;DHT22;378;48.844;9.156;2023-04-24T15:38:50;12.30;99.90
790;DHT22;378;48.844;9.156;2023-04-24T15:41:17;12.50;99.90
790;DHT22;378;48.844;9.156;2023-04-24T15:43:44;13.20;99.90
790;DHT22;378;48.844;9.156;2023-04-24T15:46:11;13.50;99.90
790;DHT22;378;48.844;9.156;2023-04-24T15:51:07;13.60;99.90
790;DHT22;378;48.844;9.156;2023-04-24T15:53:34;13.90;99.90
790;DHT22;378;48.844;9.156;2023-04-24T15:56:01;14.20;99.90
790;DHT22;378;48.844;9.156;2023-04-24T15:58:28;15.20;99.90
790;DHT22;378;48.844;9.156;2023-04-24T16:00:54;16.10;99.90
790;DHT22;378;48.844;9.156;2023-04-24T16:03:21;16.90;99.90
790;DHT22;378;48.844;9.156;2023-04-24T16:05:48;15.90;99.90
790;DHT22;378;48.844;9.156;2023-04-24T16:08:16;15.60;99.90
790;DHT22;378;48.844;9.156;2023-04-24T16:10:43;16.20;99.90
790;DHT22;378;48.844;9.156;2023-04-24T16:13:11;16.90;99.90
790;DHT22;378;48.844;9.156;2023-04-24T16:15:38;17.60;99.90
790;DHT22;378;48.844;9.156;2023-04-24T16:18:06;18.20;99.90
790;DHT22;378;48.844;9.156;2023-04-24T16:20:33;18.70;99.90
790;DHT22;378;48.844;9.156;2023-04-24T16:23:00;18.20;99.90
790;DHT22;378;48.844;9.156;2023-04-24T16:25:28;17.50;99.90
790;DHT22;378;48.844;9.156;2023-04-24T16:27:55;17.10;99.90
790;DHT22;378;48.844;9.156;2023-04-24T16:30:22;17.00;99.90
790;DHT22;378;48.844;9.156;2023-04-24T16:32:49;16.20;99.90
790;DHT22;378;48.844;9.156;2023-04-24T16:35:16;16.20;99.90
790;DHT22;378;48.844;9.156;2023-04-24T16:37:42;16.50;99.90
790;DHT22;378;48.844;9.156;2023-04-24T16:40:10;16.60;99.90
790;DHT22;378;48.844;9.156;2023-04-24T16:42:38;16.70;99.90